ASA9620 PAFA-KEUG
Flight info
| Callsign | ASA9620 |
|---|---|
| Flight time | N/A |
| Altitude | 39000 |
| Route | RDFLG5 RDFLG J502 ORT Q902 YZT J523 TOU J501 WAPTO Q801 ECTOF |
| Aircraft | B739/M-SDE2E3FGHIRWXY/LB1 |
Departure
| Time | N/A |
|---|---|
| Airport | Fairbanks International Airport (PAFA) |
Arrival
| Time | 2026-04-17 19:53 |
|---|---|
| Airport | Eugene Airport (KEUG) |
| Time | Latitude | Longitude | Altitude | Speed | Heading |
|---|---|---|---|---|---|
| 2026-04-17 17:55 | 56.50067 | -133.12235 | 41254 ft | 479 kts | 149° |
| 2026-04-17 17:55 | 56.47293 | -133.08896 | 41256 ft | 479 kts | 149° |
| 2026-04-17 17:56 | 56.41674 | -133.02429 | 41260 ft | 478 kts | 152° |
| 2026-04-17 17:56 | 56.35987 | -132.96205 | 41267 ft | 479 kts | 152° |
| 2026-04-17 17:57 | 56.30290 | -132.89975 | 41270 ft | 479 kts | 152° |
| 2026-04-17 17:57 | 56.24633 | -132.83758 | 41269 ft | 480 kts | 152° |
| 2026-04-17 17:58 | 56.18929 | -132.77489 | 41263 ft | 480 kts | 152° |
| 2026-04-17 17:58 | 56.15214 | -132.73417 | 41269 ft | 480 kts | 152° |
| 2026-04-17 17:59 | 56.09503 | -132.67177 | 41273 ft | 480 kts | 152° |
| 2026-04-17 17:59 | 56.03841 | -132.61014 | 41274 ft | 480 kts | 152° |
| 2026-04-17 18:00 | 55.98136 | -132.54827 | 41274 ft | 480 kts | 152° |
| 2026-04-17 18:00 | 55.92430 | -132.48661 | 41272 ft | 479 kts | 152° |
| 2026-04-17 18:01 | 55.86724 | -132.42514 | 41272 ft | 479 kts | 152° |
| 2026-04-17 18:01 | 55.81016 | -132.36388 | 41274 ft | 479 kts | 152° |
| 2026-04-17 18:02 | 55.75313 | -132.30288 | 41281 ft | 480 kts | 152° |
| 2026-04-17 18:02 | 55.69622 | -132.24219 | 41268 ft | 479 kts | 152° |
| 2026-04-17 18:03 | 55.63909 | -132.18147 | 41276 ft | 479 kts | 152° |
| 2026-04-17 18:03 | 55.58188 | -132.12089 | 41271 ft | 479 kts | 152° |
| 2026-04-17 18:04 | 55.52508 | -132.06090 | 41294 ft | 479 kts | 152° |
| 2026-04-17 18:04 | 55.46780 | -132.00056 | 41297 ft | 480 kts | 152° |
| 2026-04-17 18:05 | 55.41037 | -131.94032 | 41295 ft | 480 kts | 152° |
| 2026-04-17 18:05 | 55.36271 | -131.89063 | 41299 ft | 479 kts | 153° |
| 2026-04-17 18:06 | 55.30533 | -131.83100 | 41299 ft | 479 kts | 153° |
| 2026-04-17 18:06 | 55.23861 | -131.76186 | 41295 ft | 479 kts | 153° |
| 2026-04-17 18:07 | 55.19091 | -131.71259 | 41303 ft | 479 kts | 153° |
| 2026-04-17 18:07 | 55.13348 | -131.65343 | 41285 ft | 479 kts | 153° |
| 2026-04-17 18:08 | 55.07602 | -131.59442 | 41272 ft | 479 kts | 153° |
| 2026-04-17 18:08 | 55.01903 | -131.53474 | 41274 ft | 479 kts | 151° |
| 2026-04-17 18:09 | 54.96240 | -131.47317 | 41278 ft | 479 kts | 151° |
| 2026-04-17 18:09 | 54.90584 | -131.41190 | 41280 ft | 479 kts | 151° |
| 2026-04-17 18:10 | 54.84956 | -131.35151 | 41282 ft | 479 kts | 152° |
| 2026-04-17 18:10 | 54.79285 | -131.29096 | 41288 ft | 479 kts | 152° |
| 2026-04-17 18:11 | 54.73613 | -131.23056 | 41294 ft | 479 kts | 152° |
| 2026-04-17 18:11 | 54.67991 | -131.16817 | 41292 ft | 482 kts | 145° |
| 2026-04-17 18:12 | 54.62754 | -131.09571 | 41301 ft | 483 kts | 144° |
| 2026-04-17 18:12 | 54.57223 | -131.03225 | 41309 ft | 480 kts | 152° |
| 2026-04-17 18:13 | 54.51462 | -130.97422 | 41306 ft | 480 kts | 153° |
| 2026-04-17 18:13 | 54.47107 | -130.93047 | 41310 ft | 481 kts | 153° |
| 2026-04-17 18:14 | 54.41826 | -130.87662 | 41302 ft | 481 kts | 152° |
| 2026-04-17 18:14 | 54.36080 | -130.81751 | 41305 ft | 482 kts | 152° |
| 2026-04-17 18:15 | 54.30370 | -130.75879 | 41304 ft | 482 kts | 152° |
| 2026-04-17 18:15 | 54.24615 | -130.69981 | 41302 ft | 482 kts | 152° |
| 2026-04-17 18:16 | 54.18856 | -130.64103 | 41309 ft | 482 kts | 152° |
| 2026-04-17 18:16 | 54.13089 | -130.58239 | 41293 ft | 483 kts | 152° |
| 2026-04-17 18:17 | 54.07318 | -130.52389 | 41302 ft | 482 kts | 152° |
| 2026-04-17 18:17 | 53.98706 | -130.43695 | 41301 ft | 482 kts | 152° |
| 2026-04-17 18:18 | 53.92933 | -130.37890 | 41301 ft | 482 kts | 152° |
| 2026-04-17 18:18 | 53.87160 | -130.32105 | 41299 ft | 482 kts | 152° |
| 2026-04-17 18:19 | 53.81422 | -130.26373 | 41318 ft | 482 kts | 152° |
| 2026-04-17 18:19 | 53.75652 | -130.20627 | 41312 ft | 482 kts | 153° |
| 2026-04-17 18:20 | 53.69871 | -130.14890 | 41312 ft | 482 kts | 153° |
| 2026-04-17 18:20 | 53.64085 | -130.09166 | 41298 ft | 482 kts | 153° |
| 2026-04-17 18:21 | 53.58301 | -130.03461 | 41316 ft | 482 kts | 153° |
| 2026-04-17 18:21 | 53.52556 | -129.97813 | 41312 ft | 482 kts | 153° |
| 2026-04-17 18:22 | 53.46764 | -129.92138 | 41307 ft | 482 kts | 153° |
| 2026-04-17 18:22 | 53.40969 | -129.86477 | 41313 ft | 482 kts | 153° |
| 2026-04-17 18:23 | 53.35180 | -129.80841 | 41306 ft | 482 kts | 153° |
| 2026-04-17 18:23 | 53.29417 | -129.75247 | 41309 ft | 482 kts | 153° |
| 2026-04-17 18:24 | 53.23621 | -129.69638 | 41308 ft | 481 kts | 153° |
| 2026-04-17 18:24 | 53.17829 | -129.64051 | 41311 ft | 481 kts | 153° |
| 2026-04-17 18:25 | 53.12026 | -129.58470 | 41312 ft | 481 kts | 153° |
| 2026-04-17 18:25 | 53.06263 | -129.52944 | 41312 ft | 481 kts | 153° |
| 2026-04-17 18:26 | 53.00466 | -129.47394 | 41312 ft | 481 kts | 153° |
| 2026-04-17 18:26 | 52.94672 | -129.41821 | 41314 ft | 481 kts | 153° |
| 2026-04-17 18:27 | 52.88879 | -129.36259 | 41316 ft | 481 kts | 153° |
| 2026-04-17 18:27 | 52.83075 | -129.30707 | 41310 ft | 481 kts | 153° |
| 2026-04-17 18:28 | 52.77317 | -129.25219 | 41313 ft | 482 kts | 153° |
| 2026-04-17 18:28 | 52.73392 | -129.21488 | 41308 ft | 482 kts | 153° |
| 2026-04-17 18:29 | 52.67580 | -129.15977 | 41310 ft | 482 kts | 153° |
| 2026-04-17 18:29 | 52.61769 | -129.10484 | 41315 ft | 482 kts | 153° |
| 2026-04-17 18:30 | 52.55953 | -129.05003 | 41312 ft | 482 kts | 153° |
| 2026-04-17 18:30 | 52.50172 | -128.99572 | 41317 ft | 482 kts | 153° |
| 2026-04-17 18:31 | 52.44356 | -128.94125 | 41312 ft | 482 kts | 153° |
| 2026-04-17 18:31 | 52.38533 | -128.88687 | 41316 ft | 481 kts | 153° |
| 2026-04-17 18:32 | 52.32716 | -128.83272 | 41319 ft | 481 kts | 153° |
| 2026-04-17 18:32 | 52.26939 | -128.77908 | 41317 ft | 481 kts | 153° |
| 2026-04-17 18:33 | 52.21114 | -128.72518 | 41323 ft | 481 kts | 153° |
| 2026-04-17 18:33 | 52.15295 | -128.67144 | 41323 ft | 481 kts | 153° |
| 2026-04-17 18:34 | 52.09469 | -128.61775 | 41321 ft | 481 kts | 153° |
| 2026-04-17 18:34 | 52.03686 | -128.56462 | 41323 ft | 481 kts | 153° |
| 2026-04-17 18:35 | 51.97854 | -128.51119 | 41321 ft | 481 kts | 153° |
| 2026-04-17 18:35 | 51.92025 | -128.45796 | 41322 ft | 481 kts | 153° |
| 2026-04-17 18:36 | 51.86187 | -128.40480 | 41316 ft | 481 kts | 153° |
| 2026-04-17 18:36 | 51.80388 | -128.35216 | 41321 ft | 481 kts | 153° |
| 2026-04-17 18:37 | 51.74546 | -128.29928 | 41320 ft | 482 kts | 153° |
| 2026-04-17 18:37 | 51.68695 | -128.24649 | 41319 ft | 482 kts | 153° |
| 2026-04-17 18:38 | 51.62845 | -128.19386 | 41318 ft | 482 kts | 153° |
| 2026-04-17 18:38 | 51.56990 | -128.14133 | 41322 ft | 482 kts | 153° |
| 2026-04-17 18:39 | 51.51167 | -128.08926 | 41326 ft | 482 kts | 153° |
| 2026-04-17 18:39 | 51.45302 | -128.03696 | 41320 ft | 482 kts | 153° |
| 2026-04-17 18:40 | 51.39436 | -127.98480 | 41322 ft | 482 kts | 154° |
| 2026-04-17 18:40 | 51.33566 | -127.93277 | 41320 ft | 482 kts | 154° |
| 2026-04-17 18:41 | 51.27694 | -127.88087 | 41322 ft | 482 kts | 154° |
| 2026-04-17 18:41 | 51.21863 | -127.82949 | 41325 ft | 482 kts | 154° |
| 2026-04-17 18:42 | 51.15986 | -127.77784 | 41328 ft | 482 kts | 154° |
| 2026-04-17 18:42 | 51.10113 | -127.72639 | 41328 ft | 482 kts | 154° |
| 2026-04-17 18:43 | 51.04276 | -127.67540 | 41330 ft | 482 kts | 154° |
| 2026-04-17 18:43 | 51.00546 | -127.64289 | 41336 ft | 482 kts | 154° |
| 2026-04-17 18:44 | 50.94661 | -127.59172 | 41337 ft | 482 kts | 154° |
| 2026-04-17 18:44 | 50.88768 | -127.54064 | 41343 ft | 482 kts | 154° |
| 2026-04-17 18:45 | 50.82878 | -127.48971 | 41346 ft | 482 kts | 154° |
| 2026-04-17 18:45 | 50.77031 | -127.43930 | 41348 ft | 482 kts | 154° |
| 2026-04-17 18:46 | 50.71134 | -127.38861 | 41349 ft | 482 kts | 154° |
| 2026-04-17 18:46 | 50.65468 | -127.33164 | 41358 ft | 485 kts | 144° |
| 2026-04-17 18:47 | 50.60142 | -127.26606 | 41346 ft | 486 kts | 143° |
| 2026-04-17 18:47 | 50.54875 | -127.20071 | 41338 ft | 486 kts | 144° |
| 2026-04-17 18:48 | 50.49526 | -127.13534 | 41344 ft | 486 kts | 144° |
| 2026-04-17 18:48 | 50.44162 | -127.07049 | 41349 ft | 487 kts | 144° |
| 2026-04-17 18:49 | 50.38789 | -127.00584 | 41330 ft | 487 kts | 144° |
| 2026-04-17 18:49 | 50.33449 | -126.94173 | 41324 ft | 487 kts | 144° |
| 2026-04-17 18:50 | 50.28070 | -126.87733 | 41333 ft | 487 kts | 144° |
| 2026-04-17 18:50 | 50.22691 | -126.81311 | 41331 ft | 487 kts | 144° |
| 2026-04-17 18:51 | 50.17306 | -126.74899 | 41327 ft | 486 kts | 144° |
| 2026-04-17 18:51 | 50.11955 | -126.68548 | 41334 ft | 487 kts | 144° |
| 2026-04-17 18:52 | 50.06558 | -126.62160 | 41327 ft | 487 kts | 144° |
| 2026-04-17 18:52 | 50.01161 | -126.55789 | 41330 ft | 488 kts | 144° |
| 2026-04-17 18:53 | 49.95752 | -126.49424 | 41334 ft | 488 kts | 145° |
| 2026-04-17 18:53 | 49.90339 | -126.43072 | 41330 ft | 487 kts | 145° |
| 2026-04-17 18:54 | 49.84927 | -126.36739 | 41330 ft | 488 kts | 145° |
| 2026-04-17 18:54 | 49.79544 | -126.30459 | 41326 ft | 488 kts | 145° |
| 2026-04-17 18:55 | 49.74118 | -126.24147 | 41334 ft | 488 kts | 145° |
| 2026-04-17 18:55 | 49.68700 | -126.17861 | 41345 ft | 487 kts | 145° |
| 2026-04-17 18:56 | 49.63270 | -126.11581 | 41338 ft | 487 kts | 145° |
| 2026-04-17 18:56 | 49.57837 | -126.05314 | 41338 ft | 488 kts | 145° |
| 2026-04-17 18:57 | 49.52438 | -125.99106 | 41331 ft | 488 kts | 145° |
| 2026-04-17 18:57 | 49.46998 | -125.92866 | 41330 ft | 489 kts | 145° |
| 2026-04-17 18:58 | 49.41542 | -125.86625 | 41345 ft | 488 kts | 145° |
| 2026-04-17 18:58 | 49.37722 | -125.82267 | 41347 ft | 489 kts | 145° |
| 2026-04-17 18:59 | 49.32296 | -125.76091 | 41350 ft | 490 kts | 145° |
| 2026-04-17 18:59 | 49.26821 | -125.69877 | 41353 ft | 490 kts | 145° |
| 2026-04-17 19:00 | 49.21347 | -125.63680 | 41360 ft | 489 kts | 145° |
| 2026-04-17 19:00 | 49.15903 | -125.57536 | 41350 ft | 489 kts | 145° |
| 2026-04-17 19:01 | 49.10424 | -125.51367 | 41352 ft | 490 kts | 146° |
| 2026-04-17 19:01 | 49.04937 | -125.45207 | 41364 ft | 490 kts | 146° |
| 2026-04-17 19:02 | 48.99454 | -125.39069 | 41355 ft | 490 kts | 146° |
| 2026-04-17 19:02 | 48.93951 | -125.32921 | 41350 ft | 490 kts | 146° |
| 2026-04-17 19:03 | 48.88493 | -125.26838 | 41348 ft | 491 kts | 146° |
| 2026-04-17 19:03 | 48.82974 | -125.20704 | 41346 ft | 491 kts | 146° |
| 2026-04-17 19:04 | 48.77464 | -125.14596 | 41346 ft | 491 kts | 146° |
| 2026-04-17 19:04 | 48.71943 | -125.08494 | 41340 ft | 491 kts | 146° |
| 2026-04-17 19:05 | 48.66419 | -125.02405 | 41344 ft | 492 kts | 146° |
| 2026-04-17 19:05 | 48.60922 | -124.96362 | 41348 ft | 492 kts | 146° |
| 2026-04-17 19:06 | 48.55389 | -124.90295 | 41338 ft | 492 kts | 146° |
| 2026-04-17 19:06 | 48.49836 | -124.84222 | 41342 ft | 492 kts | 146° |
| 2026-04-17 19:07 | 48.44390 | -124.78295 | 41341 ft | 492 kts | 146° |
| 2026-04-17 19:07 | 48.38848 | -124.72278 | 41344 ft | 492 kts | 146° |
| 2026-04-17 19:08 | 48.33392 | -124.66368 | 41337 ft | 493 kts | 146° |
| 2026-04-17 19:08 | 48.27368 | -124.61230 | 41326 ft | 487 kts | 163° |
| 2026-04-17 19:09 | 48.20936 | -124.58133 | 41343 ft | 485 kts | 166° |
| 2026-04-17 19:09 | 48.14529 | -124.55164 | 41344 ft | 486 kts | 166° |
| 2026-04-17 19:10 | 48.08082 | -124.52103 | 41348 ft | 486 kts | 165° |
| 2026-04-17 19:10 | 48.01655 | -124.49011 | 41356 ft | 486 kts | 165° |
| 2026-04-17 19:11 | 47.95203 | -124.45906 | 41346 ft | 486 kts | 165° |
| 2026-04-17 19:11 | 47.88763 | -124.42818 | 41345 ft | 486 kts | 165° |
| 2026-04-17 19:12 | 47.82382 | -124.39769 | 41348 ft | 486 kts | 165° |
| 2026-04-17 19:12 | 47.75928 | -124.36695 | 41346 ft | 486 kts | 165° |
| 2026-04-17 19:13 | 47.69498 | -124.33639 | 41343 ft | 486 kts | 165° |
| 2026-04-17 19:13 | 47.65658 | -124.31818 | 41336 ft | 486 kts | 165° |
| 2026-04-17 19:14 | 47.59230 | -124.28775 | 41335 ft | 486 kts | 165° |
| 2026-04-17 19:14 | 47.52793 | -124.25735 | 41336 ft | 486 kts | 166° |
| 2026-04-17 19:15 | 47.46351 | -124.22763 | 41337 ft | 484 kts | 169° |
| 2026-04-17 19:15 | 47.39791 | -124.20693 | 41339 ft | 482 kts | 173° |
| 2026-04-17 19:16 | 47.33194 | -124.18878 | 41338 ft | 482 kts | 173° |
| 2026-04-17 19:16 | 47.26656 | -124.17045 | 41341 ft | 482 kts | 173° |
| 2026-04-17 19:17 | 47.20088 | -124.15147 | 41346 ft | 482 kts | 172° |
| 2026-04-17 19:17 | 47.13499 | -124.13221 | 41344 ft | 482 kts | 172° |
| 2026-04-17 19:18 | 47.07028 | -124.11331 | 41346 ft | 482 kts | 172° |
| 2026-04-17 19:18 | 47.00437 | -124.09414 | 41349 ft | 482 kts | 172° |
| 2026-04-17 19:19 | 46.93861 | -124.07508 | 41347 ft | 482 kts | 172° |
| 2026-04-17 19:19 | 46.87328 | -124.05620 | 41347 ft | 482 kts | 172° |
| 2026-04-17 19:20 | 46.80733 | -124.03719 | 41346 ft | 482 kts | 172° |
| 2026-04-17 19:20 | 46.74152 | -124.01827 | 41344 ft | 482 kts | 172° |
| 2026-04-17 19:21 | 46.67560 | -123.99935 | 41341 ft | 482 kts | 172° |
| 2026-04-17 19:21 | 46.60982 | -123.98053 | 41337 ft | 482 kts | 172° |
| 2026-04-17 19:22 | 46.54442 | -123.96186 | 41337 ft | 482 kts | 172° |
| 2026-04-17 19:22 | 46.47856 | -123.94311 | 41335 ft | 482 kts | 172° |
| 2026-04-17 19:23 | 46.37988 | -123.91510 | 41331 ft | 482 kts | 172° |
| 2026-04-17 19:24 | 46.31401 | -123.89655 | 41331 ft | 482 kts | 173° |
| 2026-04-17 19:24 | 46.24867 | -123.87812 | 41331 ft | 482 kts | 172° |
| 2026-04-17 19:25 | 46.18288 | -123.85950 | 41330 ft | 482 kts | 172° |
| 2026-04-17 19:25 | 46.11716 | -123.84101 | 41332 ft | 482 kts | 173° |
| 2026-04-17 19:26 | 46.05137 | -123.82256 | 41330 ft | 482 kts | 173° |
| 2026-04-17 19:26 | 45.98593 | -123.80427 | 41321 ft | 482 kts | 173° |
| 2026-04-17 19:27 | 45.92016 | -123.78593 | 41320 ft | 482 kts | 173° |
| 2026-04-17 19:27 | 45.85435 | -123.76762 | 41311 ft | 481 kts | 173° |
| 2026-04-17 19:28 | 45.78863 | -123.74938 | 41166 ft | 484 kts | 173° |
| 2026-04-17 19:28 | 45.75523 | -123.74015 | 40539 ft | 488 kts | 173° |
| 2026-04-17 19:28 | 45.74733 | -123.73797 | 40418 ft | 487 kts | 173° |
| 2026-04-17 19:28 | 45.71464 | -123.72890 | 39716 ft | 485 kts | 173° |
| 2026-04-17 19:29 | 45.68156 | -123.71978 | 38979 ft | 483 kts | 173° |
| 2026-04-17 19:29 | 45.64844 | -123.71071 | 37877 ft | 486 kts | 174° |
| 2026-04-17 19:29 | 45.61541 | -123.70164 | 37302 ft | 478 kts | 174° |
| 2026-04-17 19:29 | 45.58302 | -123.69271 | 36665 ft | 473 kts | 174° |
| 2026-04-17 19:30 | 45.55082 | -123.68384 | 36077 ft | 467 kts | 174° |
| 2026-04-17 19:30 | 45.51918 | -123.67514 | 35482 ft | 462 kts | 174° |
| 2026-04-17 19:30 | 45.48778 | -123.66651 | 34896 ft | 457 kts | 174° |
| 2026-04-17 19:30 | 45.45711 | -123.65810 | 34334 ft | 453 kts | 174° |
| 2026-04-17 19:31 | 45.42624 | -123.64965 | 33682 ft | 449 kts | 174° |
| 2026-04-17 19:31 | 45.39570 | -123.64131 | 33067 ft | 445 kts | 174° |
| 2026-04-17 19:31 | 45.36542 | -123.63304 | 32492 ft | 440 kts | 174° |
| 2026-04-17 19:31 | 45.33547 | -123.62486 | 31926 ft | 436 kts | 175° |
| 2026-04-17 19:32 | 45.30577 | -123.61677 | 31367 ft | 433 kts | 175° |
| 2026-04-17 19:32 | 45.27641 | -123.60878 | 30820 ft | 429 kts | 175° |
| 2026-04-17 19:32 | 45.24707 | -123.60081 | 30265 ft | 426 kts | 175° |
| 2026-04-17 19:32 | 45.21805 | -123.59293 | 29642 ft | 423 kts | 175° |
| 2026-04-17 19:33 | 45.18968 | -123.58523 | 29081 ft | 418 kts | 174° |
| 2026-04-17 19:33 | 45.16124 | -123.57751 | 28529 ft | 414 kts | 174° |
| 2026-04-17 19:33 | 45.13310 | -123.56988 | 27984 ft | 410 kts | 174° |
| 2026-04-17 19:33 | 45.10524 | -123.56234 | 27452 ft | 406 kts | 174° |
| 2026-04-17 19:34 | 45.07754 | -123.55486 | 26918 ft | 403 kts | 174° |
| 2026-04-17 19:34 | 45.05010 | -123.54745 | 26400 ft | 400 kts | 174° |
| 2026-04-17 19:34 | 45.02295 | -123.54013 | 25891 ft | 397 kts | 174° |
| 2026-04-17 19:34 | 44.99599 | -123.53286 | 25375 ft | 394 kts | 174° |
| 2026-04-17 19:35 | 44.96941 | -123.52565 | 24879 ft | 392 kts | 173° |
| 2026-04-17 19:35 | 44.94273 | -123.51842 | 24345 ft | 391 kts | 173° |
| 2026-04-17 19:35 | 44.91603 | -123.51123 | 23825 ft | 389 kts | 173° |
| 2026-04-17 19:35 | 44.88951 | -123.50409 | 23233 ft | 386 kts | 173° |
| 2026-04-17 19:36 | 44.86323 | -123.49704 | 22702 ft | 383 kts | 173° |
| 2026-04-17 19:36 | 44.83720 | -123.49006 | 22189 ft | 379 kts | 173° |
| 2026-04-17 19:36 | 44.81144 | -123.48316 | 21686 ft | 375 kts | 173° |
| 2026-04-17 19:36 | 44.78627 | -123.47642 | 21205 ft | 372 kts | 172° |
| 2026-04-17 19:37 | 44.76096 | -123.46966 | 20722 ft | 368 kts | 172° |
| 2026-04-17 19:37 | 44.73597 | -123.46299 | 20241 ft | 365 kts | 172° |
| 2026-04-17 19:37 | 44.71109 | -123.45635 | 19763 ft | 362 kts | 172° |
| 2026-04-17 19:37 | 44.68644 | -123.44978 | 19290 ft | 359 kts | 172° |
| 2026-04-17 19:38 | 44.66193 | -123.44325 | 18823 ft | 357 kts | 172° |
| 2026-04-17 19:38 | 44.63766 | -123.43680 | 18310 ft | 354 kts | 171° |
| 2026-04-17 19:38 | 44.61351 | -123.43038 | 17783 ft | 352 kts | 171° |
| 2026-04-17 19:38 | 44.58961 | -123.42403 | 17300 ft | 348 kts | 171° |
| 2026-04-17 19:39 | 44.56596 | -123.41775 | 16835 ft | 344 kts | 171° |
| 2026-04-17 19:39 | 44.54293 | -123.41163 | 16372 ft | 341 kts | 171° |
| 2026-04-17 19:39 | 44.51968 | -123.40547 | 15913 ft | 337 kts | 171° |
| 2026-04-17 19:39 | 44.49678 | -123.39941 | 15466 ft | 334 kts | 171° |
| 2026-04-17 19:40 | 44.47395 | -123.39336 | 15021 ft | 332 kts | 171° |
| 2026-04-17 19:40 | 44.45138 | -123.38742 | 14592 ft | 329 kts | 172° |
| 2026-04-17 19:40 | 44.42897 | -123.38630 | 14308 ft | 320 kts | 186° |
| 2026-04-17 19:40 | 44.40719 | -123.38911 | 13950 ft | 312 kts | 187° |
| 2026-04-17 19:41 | 44.38561 | -123.39225 | 13229 ft | 310 kts | 187° |
| 2026-04-17 19:41 | 44.36965 | -123.39460 | 12693 ft | 310 kts | 187° |
| 2026-04-17 19:41 | 44.34836 | -123.39766 | 12069 ft | 307 kts | 187° |
| 2026-04-17 19:41 | 44.32707 | -123.40058 | 11463 ft | 305 kts | 187° |
| 2026-04-17 19:42 | 44.30629 | -123.40340 | 10928 ft | 302 kts | 187° |
| 2026-04-17 19:42 | 44.28550 | -123.40620 | 10405 ft | 301 kts | 187° |
| 2026-04-17 19:42 | 44.26491 | -123.40888 | 10143 ft | 289 kts | 186° |
| 2026-04-17 19:42 | 44.24531 | -123.41146 | 9795 ft | 278 kts | 186° |
| 2026-04-17 19:43 | 44.22609 | -123.41400 | 9260 ft | 276 kts | 186° |
| 2026-04-17 19:43 | 44.20706 | -123.41650 | 8850 ft | 275 kts | 186° |
| 2026-04-17 19:43 | 44.20280 | -123.41706 | 8771 ft | 274 kts | 186° |
| 2026-04-17 19:43 | 44.18379 | -123.41955 | 8397 ft | 273 kts | 186° |
| 2026-04-17 19:44 | 44.16489 | -123.42203 | 8049 ft | 272 kts | 186° |
| 2026-04-17 19:44 | 44.14653 | -123.42441 | 7664 ft | 272 kts | 185° |
| 2026-04-17 19:44 | 44.12748 | -123.42688 | 7299 ft | 271 kts | 185° |
| 2026-04-17 19:44 | 44.10873 | -123.42930 | 6947 ft | 270 kts | 185° |
| 2026-04-17 19:45 | 44.09007 | -123.43171 | 6602 ft | 268 kts | 185° |
| 2026-04-17 19:45 | 44.07161 | -123.43411 | 6240 ft | 266 kts | 185° |
| 2026-04-17 19:45 | 44.05316 | -123.43617 | 5932 ft | 264 kts | 184° |
| 2026-04-17 19:45 | 44.03491 | -123.43855 | 5589 ft | 262 kts | 185° |
| 2026-04-17 19:46 | 44.01681 | -123.44116 | 5242 ft | 262 kts | 185° |
| 2026-04-17 19:46 | 43.99871 | -123.44357 | 4877 ft | 260 kts | 181° |
| 2026-04-17 19:46 | 43.98137 | -123.43907 | 4513 ft | 254 kts | 153° |
| 2026-04-17 19:46 | 43.96827 | -123.42418 | 4470 ft | 243 kts | 128° |
| 2026-04-17 19:47 | 43.96099 | -123.40344 | 4312 ft | 236 kts | 105° |
| 2026-04-17 19:47 | 43.95937 | -123.38134 | 4142 ft | 235 kts | 88° |
| 2026-04-17 19:47 | 43.96100 | -123.35900 | 3972 ft | 228 kts | 84° |
| 2026-04-17 19:47 | 43.96316 | -123.33752 | 3824 ft | 220 kts | 83° |
| 2026-04-17 19:48 | 43.96515 | -123.31694 | 3725 ft | 212 kts | 84° |
| 2026-04-17 19:48 | 43.96699 | -123.29671 | 3605 ft | 213 kts | 83° |
| 2026-04-17 19:48 | 43.97018 | -123.27706 | 3467 ft | 212 kts | 73° |
| 2026-04-17 19:48 | 43.97598 | -123.25795 | 3080 ft | 208 kts | 59° |
| 2026-04-17 19:49 | 43.98441 | -123.24241 | 2817 ft | 196 kts | 45° |
| 2026-04-17 19:49 | 43.99460 | -123.23209 | 2630 ft | 181 kts | 31° |
| 2026-04-17 19:49 | 44.00534 | -123.22440 | 2394 ft | 170 kts | 23° |
| 2026-04-17 19:49 | 44.01620 | -123.21982 | 2285 ft | 165 kts | 9° |
| 2026-04-17 19:50 | 44.02736 | -123.21871 | 2060 ft | 153 kts | 6° |
| 2026-04-17 19:50 | 44.03755 | -123.21797 | 1833 ft | 142 kts | 2° |
| 2026-04-17 19:50 | 44.04701 | -123.21791 | 1693 ft | 138 kts | 0° |
| 2026-04-17 19:50 | 44.05635 | -123.21797 | 1524 ft | 129 kts | 0° |
| 2026-04-17 19:51 | 44.06525 | -123.21810 | 1323 ft | 128 kts | 0° |
| 2026-04-17 19:51 | 44.07408 | -123.21815 | 1170 ft | 126 kts | 358° |
| 2026-04-17 19:51 | 44.08279 | -123.21841 | 1005 ft | 122 kts | 359° |
| 2026-04-17 19:51 | 44.09115 | -123.21855 | 839 ft | 123 kts | 1° |
| 2026-04-17 19:52 | 44.09955 | -123.21862 | 637 ft | 116 kts | 359° |
| 2026-04-17 19:52 | 44.10769 | -123.21875 | 511 ft | 118 kts | 359° |
| 2026-04-17 19:52 | 44.11588 | -123.21887 | 360 ft | 116 kts | 359° |
| 2026-04-17 19:52 | 44.12280 | -123.21897 | 361 ft | 79 kts | 359° |
| 2026-04-17 19:53 | 44.12690 | -123.21903 | 360 ft | 38 kts | 359° |
| 2026-04-17 19:53 | 44.12820 | -123.21888 | 360 ft | 10 kts | 46° |
| 2026-04-17 19:53 | 44.12831 | -123.21797 | 357 ft | 11 kts | 90° |
| 2026-04-17 19:53 | 44.12800 | -123.21728 | 359 ft | 8 kts | 153° |
| 2026-04-17 19:54 | 44.12744 | -123.21717 | 359 ft | 8 kts | 178° |
| 2026-04-17 19:54 | 44.12687 | -123.21714 | 358 ft | 8 kts | 179° |
| 2026-04-17 19:54 | 44.12631 | -123.21712 | 358 ft | 8 kts | 179° |
| 2026-04-17 19:54 | 44.12576 | -123.21710 | 359 ft | 8 kts | 178° |
| 2026-04-17 19:55 | 44.12511 | -123.21710 | 361 ft | 11 kts | 180° |
| 2026-04-17 19:55 | 44.12399 | -123.21710 | 357 ft | 21 kts | 180° |
| 2026-04-17 19:55 | 44.12234 | -123.21708 | 365 ft | 25 kts | 179° |
| 2026-04-17 19:55 | 44.12054 | -123.21701 | 358 ft | 22 kts | 178° |
| 2026-04-17 19:56 | 44.11972 | -123.21686 | 361 ft | 11 kts | 150° |
| 2026-04-17 19:56 | 44.11947 | -123.21601 | 363 ft | 7 kts | 99° |
| 2026-04-17 19:56 | 44.11931 | -123.21561 | 366 ft | 5 kts | 144° |
| 2026-04-17 19:56 | 44.11907 | -123.21536 | 361 ft | 4 kts | 136° |
| 2026-04-17 19:57 | 44.11883 | -123.21480 | 363 ft | 9 kts | 107° |
| 2026-04-17 19:57 | 44.11888 | -123.21423 | 364 ft | 6 kts | 82° |
| 2026-04-17 19:57 | 44.11880 | -123.21395 | 367 ft | 2 kts | 127° |
| 2026-04-17 19:57 | 44.11869 | -123.21382 | 365 ft | 2 kts | 132° |
| 2026-04-17 19:58 | 44.11865 | -123.21372 | 365 ft | 1 kts | 115° |
| 2026-04-17 19:58 | 44.11865 | -123.21371 | 365 ft | 0 kts | 108° |